createdAt,value
2023-03-11T00:01:46.221Z,96134.00
2023-03-11T00:04:13.344Z,96128.28
2023-03-11T00:06:40.451Z,96142.06
2023-03-11T00:09:07.686Z,96125.59
2023-03-11T00:11:34.856Z,96131.47
2023-03-11T00:14:02.032Z,96137.59
2023-03-11T00:16:29.206Z,96146.94
2023-03-11T00:18:57.673Z,96150.53
2023-03-11T00:21:24.811Z,96150.53
2023-03-11T00:23:51.888Z,96145.94
2023-03-11T00:26:19.372Z,96148.00
2023-03-11T00:28:46.482Z,96146.41
2023-03-11T00:31:13.966Z,96159.34
2023-03-11T00:33:41.127Z,96169.31
2023-03-11T00:36:22.355Z,96160.75
2023-03-11T00:38:49.527Z,96164.72
2023-03-11T00:41:16.913Z,96152.09
2023-03-11T00:43:44.089Z,96165.00
2023-03-11T00:46:11.322Z,96182.16
2023-03-11T00:48:38.614Z,96183.94
2023-03-11T00:51:11.404Z,96179.34
2023-03-11T00:53:38.647Z,96181.06
2023-03-11T00:56:09.897Z,96193.38
2023-03-11T00:58:37.377Z,96192.13
2023-03-11T01:01:07.518Z,96200.97
2023-03-11T01:03:35.119Z,96205.03
2023-03-11T01:06:02.647Z,96206.94
2023-03-11T01:08:31.212Z,96205.03
2023-03-11T01:10:59.151Z,96220.13
2023-03-11T01:13:27.637Z,96205.34
2023-03-11T01:15:55.196Z,96221.78
2023-03-11T01:18:22.381Z,96213.03
2023-03-11T01:20:49.648Z,96218.84
2023-03-11T01:23:18.333Z,96215.38
2023-03-11T01:25:46.834Z,96220.13
2023-03-11T01:28:14.114Z,96233.25
2023-03-11T01:30:42.793Z,96238.63
2023-03-11T01:33:16.201Z,96252.09
2023-03-11T01:35:43.460Z,96248.50
2023-03-11T01:38:11.694Z,96239.81
2023-03-11T01:40:41.068Z,96232.75
2023-03-11T01:43:48.404Z,96232.22
2023-03-11T01:46:19.128Z,96245.97
2023-03-11T01:48:48.223Z,96249.59
2023-03-11T01:51:19.454Z,96255.44
2023-03-11T01:53:46.982Z,96265.41
2023-03-11T01:56:14.494Z,96254.78
2023-03-11T01:58:43.920Z,96252.88
2023-03-11T02:01:12.946Z,96253.00
2023-03-11T02:03:41.366Z,96246.31
2023-03-11T02:06:12.102Z,96254.59
2023-03-11T02:08:41.381Z,96262.97
2023-03-11T02:11:11.899Z,96241.69
2023-03-11T02:13:41.730Z,96257.41
2023-03-11T02:16:09.085Z,96228.59
2023-03-11T02:18:38.048Z,96262.28
2023-03-11T02:21:15.424Z,96263.88
2023-03-11T02:23:49.632Z,96282.38
2023-03-11T02:26:22.444Z,96278.59
2023-03-11T02:28:53.043Z,96277.69
2023-03-11T02:31:21.848Z,96299.97
2023-03-11T02:33:52.968Z,96289.22
2023-03-11T02:36:38.062Z,96290.84
2023-03-11T02:39:06.091Z,96290.84
2023-03-11T02:41:37.060Z,96290.00
2023-03-11T02:44:08.321Z,96292.53
2023-03-11T02:46:37.127Z,96279.41
2023-03-11T02:49:04.987Z,96302.78
2023-03-11T02:51:32.101Z,96288.25
2023-03-11T02:54:03.468Z,96295.03
2023-03-11T02:56:30.671Z,96288.53
2023-03-11T02:58:57.794Z,96294.06
2023-03-11T03:01:26.291Z,96298.13
2023-03-11T03:03:53.433Z,96296.94
2023-03-11T03:06:20.615Z,96307.28
2023-03-11T03:08:47.705Z,96304.28
2023-03-11T03:11:14.859Z,96300.63
2023-03-11T03:13:41.973Z,96304.00
2023-03-11T03:16:09.091Z,96310.66
2023-03-11T03:18:38.318Z,96301.59
2023-03-11T03:21:05.728Z,96302.59
2023-03-11T03:23:32.799Z,96315.63
2023-03-11T03:25:59.878Z,96310.84
2023-03-11T03:28:27.243Z,96314.44
2023-03-11T03:30:54.403Z,96307.78
2023-03-11T03:33:21.653Z,96308.56
2023-03-11T03:35:50.157Z,96315.56
2023-03-11T03:38:17.296Z,96317.97
2023-03-11T03:40:46.670Z,96319.19
2023-03-11T03:43:13.783Z,96321.63
2023-03-11T03:45:40.912Z,96332.50
2023-03-11T03:48:08.429Z,96329.59
2023-03-11T03:50:35.542Z,96329.66
2023-03-11T03:53:04.006Z,96332.53
2023-03-11T03:55:31.214Z,96336.06
2023-03-11T03:57:58.517Z,96331.84
2023-03-11T04:00:25.830Z,96345.31
2023-03-11T04:02:52.941Z,96350.38
2023-03-11T04:05:20.079Z,96358.03
2023-03-11T04:07:47.154Z,96341.53
2023-03-11T04:10:16.065Z,96358.56
2023-03-11T04:12:43.465Z,96365.00
2023-03-11T04:15:11.250Z,96374.00
2023-03-11T04:17:38.664Z,96386.25
2023-03-11T04:20:06.767Z,96380.56
2023-03-11T04:22:33.980Z,96378.34
2023-03-11T04:25:01.250Z,96380.00
2023-03-11T04:27:29.740Z,96381.38
2023-03-11T04:29:56.801Z,96393.66
2023-03-11T04:32:23.983Z,96390.06
2023-03-11T04:34:51.097Z,96390.47
2023-03-11T04:37:18.178Z,96388.06
2023-03-11T04:39:45.259Z,96389.88
2023-03-11T04:42:12.359Z,96385.59
2023-03-11T04:44:40.858Z,96400.75
2023-03-11T04:47:07.949Z,96402.59
2023-03-11T04:49:35.167Z,96412.28
2023-03-11T04:52:02.351Z,96416.88
2023-03-11T04:54:29.514Z,96417.56
2023-03-11T04:56:56.631Z,96411.84
2023-03-11T04:59:23.748Z,96410.59
2023-03-11T05:01:52.183Z,96412.28
2023-03-11T05:04:19.357Z,96416.38
2023-03-11T05:06:46.433Z,96423.63
2023-03-11T05:09:13.512Z,96430.03
2023-03-11T05:11:40.606Z,96431.81
2023-03-11T05:14:07.695Z,96437.38
2023-03-11T05:16:34.795Z,96447.94
2023-03-11T05:19:03.659Z,96452.22
2023-03-11T05:21:30.724Z,96453.72
2023-03-11T05:23:57.799Z,96471.94
2023-03-11T05:26:24.895Z,96470.97
2023-03-11T05:28:51.970Z,96486.31
2023-03-11T05:31:19.091Z,96488.41
2023-03-11T05:33:46.234Z,96495.97
2023-03-11T05:36:14.662Z,96487.91
2023-03-11T05:38:41.750Z,96494.94
2023-03-11T05:41:09.017Z,96498.44
2023-03-11T05:43:36.130Z,96498.13
2023-03-11T05:46:03.390Z,96497.34
2023-03-11T05:48:30.500Z,96492.19
2023-03-11T05:50:57.607Z,96480.72
2023-03-11T05:53:26.022Z,96490.88
2023-03-11T05:55:56.714Z,96499.94
2023-03-11T05:58:23.926Z,96497.25
2023-03-11T06:00:51.078Z,96499.16
2023-03-11T06:03:18.186Z,96501.06
2023-03-11T06:05:45.775Z,96473.94
2023-03-11T06:08:13.384Z,96505.66
2023-03-11T06:10:42.558Z,96508.91
2023-03-11T06:13:10.090Z,96512.31
2023-03-11T06:15:37.967Z,96512.28
2023-03-11T06:18:05.337Z,96510.47
2023-03-11T06:20:32.416Z,96508.09
2023-03-11T06:22:59.490Z,96506.91
2023-03-11T06:25:26.876Z,96514.25
2023-03-11T06:27:55.304Z,96512.66
2023-03-11T06:30:24.008Z,96518.72
2023-03-11T06:32:51.203Z,96516.72
2023-03-11T06:35:18.578Z,96524.16
2023-03-11T06:37:45.689Z,96525.28
2023-03-11T06:40:13.310Z,96532.66
2023-03-11T06:42:40.401Z,96529.97
2023-03-11T06:45:09.795Z,96536.16
2023-03-11T06:47:36.947Z,96548.53
2023-03-11T06:50:04.569Z,96553.69
2023-03-11T06:52:31.675Z,96540.94
2023-03-11T06:54:58.890Z,96563.28
2023-03-11T06:57:26.009Z,96565.75
2023-03-11T06:59:53.245Z,96566.59
2023-03-11T07:02:21.717Z,96575.66
2023-03-11T07:04:49.263Z,96581.03
2023-03-11T07:07:16.377Z,96574.34
2023-03-11T07:09:43.484Z,96584.31
2023-03-11T07:12:10.568Z,96593.31
2023-03-11T07:14:37.649Z,96589.00
2023-03-11T07:17:04.822Z,96594.50
2023-03-11T07:19:33.283Z,96601.16
2023-03-11T07:22:00.404Z,96599.66
2023-03-11T07:24:27.579Z,96610.22
2023-03-11T07:26:54.668Z,96607.34
2023-03-11T07:29:21.781Z,96612.03
2023-03-11T07:31:49.136Z,96610.13
2023-03-11T07:34:16.629Z,96618.69
2023-03-11T07:36:45.898Z,96605.63
2023-03-11T07:39:15.031Z,96602.16
2023-03-11T07:41:42.399Z,96617.41
2023-03-11T07:44:12.243Z,96607.75
2023-03-11T07:46:39.494Z,96631.28
2023-03-11T07:49:06.741Z,96646.72
2023-03-11T07:51:35.397Z,96656.19
2023-03-11T07:54:04.501Z,96648.41
2023-03-11T07:56:33.824Z,96656.63
2023-03-11T07:59:02.703Z,96654.81
2023-03-11T08:01:32.200Z,96656.09
2023-03-11T08:03:59.337Z,96662.06
2023-03-11T08:06:28.539Z,96665.19
2023-03-11T08:08:55.638Z,96676.44
2023-03-11T08:11:24.809Z,96675.84
2023-03-11T08:13:52.262Z,96684.31
2023-03-11T08:16:21.860Z,96688.88
2023-03-11T08:18:50.964Z,96692.41
2023-03-11T08:21:20.411Z,96678.03
2023-03-11T08:23:47.574Z,96684.84
2023-03-11T08:26:17.755Z,96677.50
2023-03-11T08:28:46.582Z,96690.84
2023-03-11T08:31:14.895Z,96687.72
2023-03-11T08:33:43.026Z,96699.41
2023-03-11T08:36:10.335Z,96699.84
2023-03-11T08:38:37.751Z,96697.19
2023-03-11T08:41:05.076Z,96694.19
2023-03-11T08:43:32.491Z,96700.94
2023-03-11T08:46:02.220Z,96711.00
2023-03-11T08:48:29.949Z,96717.00
2023-03-11T08:50:57.637Z,96711.22
2023-03-11T08:53:25.314Z,96716.53
2023-03-11T08:55:53.027Z,96721.50
2023-03-11T08:58:20.784Z,96731.47
2023-03-11T09:00:47.974Z,96717.03
2023-03-11T09:03:16.405Z,96735.16
2023-03-11T09:05:43.558Z,96734.88
2023-03-11T09:08:10.680Z,96736.09
2023-03-11T09:10:37.756Z,96742.84
2023-03-11T09:13:04.839Z,96745.06
2023-03-11T09:15:32.123Z,96735.47
2023-03-11T09:17:59.197Z,96740.56
2023-03-11T09:20:27.640Z,96756.44
2023-03-11T09:22:54.811Z,96766.22
2023-03-11T09:25:22.050Z,96761.13
2023-03-11T09:27:49.142Z,96756.47
2023-03-11T09:30:16.747Z,96768.03
2023-03-11T09:32:43.877Z,96773.91
2023-03-11T09:35:11.173Z,96790.16
2023-03-11T09:37:39.669Z,96786.53
2023-03-11T09:40:08.091Z,96784.50
2023-03-11T09:42:41.107Z,96792.13
2023-03-11T09:45:15.558Z,96792.16
2023-03-11T09:48:01.427Z,96794.97
2023-03-11T09:50:31.710Z,96800.78
2023-03-11T09:53:10.608Z,96798.16
2023-03-11T09:55:42.084Z,96791.28
2023-03-11T09:58:13.773Z,96795.88
2023-03-11T10:00:41.590Z,96802.06
2023-03-11T10:03:21.909Z,96799.78
2023-03-11T10:05:51.339Z,96805.47
2023-03-11T10:08:33.001Z,96814.72
2023-03-11T10:11:09.189Z,96812.72
2023-03-11T10:13:42.962Z,96818.22
2023-03-11T10:16:20.131Z,96810.72
2023-03-11T10:19:02.431Z,96816.31
2023-03-11T10:21:41.057Z,96808.16
2023-03-11T10:24:32.919Z,96817.03
2023-03-11T10:27:03.785Z,96821.88
2023-03-11T10:29:38.029Z,96811.69
2023-03-11T10:32:13.375Z,96822.25
2023-03-11T10:34:44.663Z,96823.28
2023-03-11T10:37:16.137Z,96817.78
2023-03-11T10:39:47.379Z,96817.00
2023-03-11T10:42:18.737Z,96821.47
2023-03-11T10:44:45.835Z,96822.81
2023-03-11T10:47:17.840Z,96823.38
2023-03-11T10:49:45.107Z,96834.88
2023-03-11T10:52:12.929Z,96836.44
2023-03-11T10:54:43.529Z,96839.47
2023-03-11T10:57:23.284Z,96826.56
2023-03-11T10:59:52.249Z,96834.44
2023-03-11T11:02:24.101Z,96827.75
2023-03-11T11:05:18.442Z,96829.94
2023-03-11T11:07:46.914Z,96821.59
2023-03-11T11:10:19.521Z,96820.06
2023-03-11T11:12:56.917Z,96817.34
2023-03-11T11:15:27.692Z,96830.03
2023-03-11T11:17:57.407Z,96828.94
2023-03-11T11:20:26.315Z,96828.66
2023-03-11T11:22:55.435Z,96833.22
2023-03-11T11:25:31.089Z,96829.16
2023-03-11T11:28:01.392Z,96811.56
2023-03-11T11:30:29.456Z,96829.66
2023-03-11T11:32:56.935Z,96825.88
2023-03-11T11:35:25.151Z,96821.78
2023-03-11T11:37:54.268Z,96821.59
2023-03-11T11:40:27.850Z,96814.59
2023-03-11T11:42:57.603Z,96806.81
2023-03-11T11:45:34.266Z,96811.19
2023-03-11T11:48:09.523Z,96821.66
2023-03-11T11:50:40.991Z,96815.78
2023-03-11T11:53:19.230Z,96807.69
2023-03-11T11:55:48.873Z,96818.69
2023-03-11T11:58:16.135Z,96810.59
2023-03-11T12:00:58.160Z,96811.41
2023-03-11T12:03:43.059Z,96815.84
2023-03-11T12:06:18.049Z,96818.03
2023-03-11T12:08:54.650Z,96819.53
2023-03-11T12:11:26.568Z,96820.44
2023-03-11T12:14:01.605Z,96818.66
2023-03-11T12:16:40.819Z,96818.03
2023-03-11T12:19:18.111Z,96817.75
2023-03-11T12:21:59.330Z,96812.59
2023-03-11T12:24:43.584Z,96827.84
2023-03-11T12:27:20.307Z,96822.25
2023-03-11T12:29:51.213Z,96829.22
2023-03-11T12:32:25.209Z,96834.13
2023-03-11T12:34:52.567Z,96835.78
2023-03-11T12:37:23.235Z,96825.72
2023-03-11T12:39:50.342Z,96831.00
2023-03-11T12:42:20.806Z,96829.41
2023-03-11T12:44:49.519Z,96828.09
2023-03-11T12:47:22.133Z,96829.97
2023-03-11T12:49:50.831Z,96836.09
2023-03-11T12:52:23.859Z,96827.47
2023-03-11T12:55:31.871Z,96824.81
2023-03-11T12:58:25.582Z,96823.94
2023-03-11T13:01:12.319Z,96828.25
2023-03-11T13:03:48.041Z,96834.78
2023-03-11T13:06:48.052Z,96829.69
2023-03-11T13:09:16.806Z,96822.63
2023-03-11T13:11:47.212Z,96802.22
2023-03-11T13:14:32.430Z,96832.66
2023-03-11T13:17:25.209Z,96827.78
2023-03-11T13:19:54.339Z,96834.78
2023-03-11T13:22:40.928Z,96836.66
2023-03-11T13:25:35.104Z,96844.72
2023-03-11T13:28:26.932Z,96843.94
2023-03-11T13:30:59.209Z,96846.84
2023-03-11T13:33:34.453Z,96847.03
2023-03-11T13:36:14.685Z,96846.72
2023-03-11T13:39:00.574Z,96836.25
2023-03-11T13:41:31.286Z,96844.44
2023-03-11T13:44:11.363Z,96847.59
2023-03-11T13:46:42.224Z,96852.78
2023-03-11T13:49:21.272Z,96855.41
2023-03-11T13:51:49.986Z,96859.47
2023-03-11T13:54:31.379Z,96871.25
2023-03-11T13:57:01.060Z,96873.34
2023-03-11T13:59:31.299Z,96848.00
2023-03-11T14:02:01.605Z,96882.53
2023-03-11T14:04:31.194Z,96885.00
2023-03-11T14:06:58.841Z,96880.13
2023-03-11T14:09:28.345Z,96882.81
2023-03-11T14:12:04.635Z,96880.34
2023-03-11T14:14:43.338Z,96881.00
2023-03-11T14:17:15.018Z,96884.41
2023-03-11T14:19:42.198Z,96885.00
2023-03-11T14:22:10.680Z,96878.00
2023-03-11T14:24:38.687Z,96861.31
2023-03-11T14:27:09.388Z,96887.47
2023-03-11T14:29:39.984Z,96898.75
2023-03-11T14:32:17.680Z,96908.28
2023-03-11T14:34:44.813Z,96906.19
2023-03-11T14:37:25.510Z,96908.34
2023-03-11T14:39:54.029Z,96914.34
2023-03-11T14:42:24.075Z,96910.88
2023-03-11T14:44:58.606Z,96919.22
2023-03-11T14:47:33.484Z,96921.41
2023-03-11T14:50:01.356Z,96920.53
2023-03-11T14:52:34.651Z,96923.22
2023-03-11T14:55:03.235Z,96924.88
2023-03-11T14:57:37.855Z,96930.00
2023-03-11T15:00:16.423Z,96931.06
2023-03-11T15:02:55.660Z,96935.16
2023-03-11T15:05:28.512Z,96931.94
2023-03-11T15:08:00.203Z,96933.34
2023-03-11T15:10:27.302Z,96921.84
2023-03-11T15:13:06.387Z,96935.50
2023-03-11T15:15:34.824Z,96934.97
2023-03-11T15:18:02.414Z,96931.50
2023-03-11T15:20:32.241Z,96939.56
2023-03-11T15:23:01.639Z,96932.66
2023-03-11T15:25:31.568Z,96936.44
2023-03-11T15:27:59.063Z,96932.38
2023-03-11T15:30:28.931Z,96934.06
2023-03-11T15:32:58.441Z,96935.34
2023-03-11T15:35:26.770Z,96930.50
2023-03-11T15:38:13.027Z,96943.06
2023-03-11T15:40:50.308Z,96938.19
2023-03-11T15:43:24.703Z,96950.56
2023-03-11T15:45:53.049Z,96947.88
2023-03-11T15:48:23.128Z,96963.28
2023-03-11T15:50:53.999Z,96966.53
2023-03-11T15:53:22.315Z,96963.00
2023-03-11T15:55:49.865Z,96962.78
2023-03-11T15:58:18.608Z,96976.00
2023-03-11T16:00:49.232Z,96957.81
2023-03-11T16:03:17.126Z,96972.28
2023-03-11T16:05:45.992Z,96981.47
2023-03-11T16:08:13.181Z,96977.53
2023-03-11T16:10:41.165Z,96977.09
2023-03-11T16:13:11.690Z,96972.22
2023-03-11T16:15:39.043Z,96988.97
2023-03-11T16:18:07.226Z,96982.88
2023-03-11T16:20:38.484Z,96989.41
2023-03-11T16:23:07.765Z,96980.41
2023-03-11T16:25:38.025Z,96985.78
2023-03-11T16:28:06.270Z,96983.81
2023-03-11T16:30:35.075Z,96980.50
2023-03-11T16:33:04.862Z,96990.47
2023-03-11T16:35:32.965Z,96982.22
2023-03-11T16:38:00.520Z,96996.19
2023-03-11T16:40:29.635Z,96998.16
2023-03-11T16:43:00.098Z,97002.66
2023-03-11T16:45:27.589Z,96994.66
2023-03-11T16:47:54.872Z,96987.16
2023-03-11T16:50:21.987Z,97000.97
2023-03-11T16:52:49.099Z,96996.75
2023-03-11T16:55:16.742Z,96988.94
2023-03-11T16:57:45.250Z,97003.56
2023-03-11T17:00:13.469Z,97020.13
2023-03-11T17:02:40.977Z,97024.94
2023-03-11T17:05:09.440Z,97032.19
2023-03-11T17:07:39.540Z,97031.63
2023-03-11T17:10:08.650Z,97039.41
2023-03-11T17:12:36.220Z,97038.69
2023-03-11T17:15:07.247Z,97044.38
2023-03-11T17:17:34.434Z,97025.72
2023-03-11T17:20:01.630Z,97051.00
2023-03-11T17:22:28.739Z,97044.53
2023-03-11T17:24:55.964Z,97051.25
2023-03-11T17:27:23.064Z,97051.22
2023-03-11T17:29:50.202Z,97046.06
2023-03-11T17:32:18.705Z,97050.47
2023-03-11T17:34:45.931Z,97056.19
2023-03-11T17:37:13.032Z,97058.25
2023-03-11T17:39:40.293Z,97058.69
2023-03-11T17:42:07.407Z,97063.94
2023-03-11T17:44:50.226Z,97076.34
2023-03-11T17:47:20.561Z,97086.91
2023-03-11T17:49:48.355Z,97076.09
2023-03-11T17:52:15.456Z,97079.19
2023-03-11T17:54:42.749Z,97089.69
2023-03-11T17:57:09.970Z,97074.91
2023-03-11T17:59:37.137Z,97078.31
2023-03-11T18:02:04.350Z,97079.31
2023-03-11T18:04:32.828Z,97075.00
2023-03-11T18:06:59.928Z,97085.53
2023-03-11T18:09:27.762Z,97095.94
2023-03-11T18:11:54.852Z,97109.34
2023-03-11T18:14:21.965Z,97114.63
2023-03-11T18:16:49.197Z,97105.31
2023-03-11T18:19:16.433Z,97107.66
2023-03-11T18:21:44.884Z,97116.06
2023-03-11T18:24:11.980Z,97121.75
2023-03-11T18:26:39.091Z,97116.84
2023-03-11T18:29:06.299Z,97131.81
2023-03-11T18:31:33.741Z,97123.53
2023-03-11T18:34:03.459Z,97132.91
2023-03-11T18:36:33.051Z,97134.88
2023-03-11T18:39:02.087Z,97142.16
2023-03-11T18:41:32.563Z,97139.22
2023-03-11T18:44:00.414Z,97145.56
2023-03-11T18:46:31.800Z,97151.56
2023-03-11T18:49:00.700Z,97151.47
2023-03-11T18:51:29.502Z,97143.38
2023-03-11T18:53:57.166Z,97152.50
2023-03-11T18:56:25.977Z,97161.81
2023-03-11T18:58:53.067Z,97152.34
2023-03-11T19:01:21.367Z,97145.66
2023-03-11T19:03:51.190Z,97157.44
2023-03-11T19:06:18.853Z,97146.16
2023-03-11T19:08:46.036Z,97155.31
2023-03-11T19:11:15.836Z,97150.22
2023-03-11T19:13:48.132Z,97152.19
2023-03-11T19:16:17.793Z,97153.88
2023-03-11T19:18:45.581Z,97161.81
2023-03-11T19:21:14.676Z,97162.16
2023-03-11T19:23:42.104Z,97153.72
2023-03-11T19:26:09.411Z,97152.41
2023-03-11T19:28:36.673Z,97160.78
2023-03-11T19:31:05.809Z,97160.19
2023-03-11T19:33:33.318Z,97160.78
2023-03-11T19:36:02.402Z,97169.44
2023-03-11T19:38:30.491Z,97171.47
2023-03-11T19:41:01.466Z,97174.16
2023-03-11T19:43:28.853Z,97179.28
2023-03-11T19:45:56.355Z,97169.75
2023-03-11T19:48:24.829Z,97177.16
2023-03-11T19:50:52.074Z,97175.84
2023-03-11T19:53:21.450Z,97176.00
2023-03-11T19:55:52.976Z,97183.50
2023-03-11T19:58:21.101Z,97179.78
2023-03-11T20:00:48.252Z,97170.69
2023-03-11T20:03:16.098Z,97178.19
2023-03-11T20:05:46.676Z,97175.78
2023-03-11T20:08:16.727Z,97179.50
2023-03-11T20:10:46.012Z,97179.28
2023-03-11T20:13:14.462Z,97181.97
2023-03-11T20:15:42.428Z,97185.81
2023-03-11T20:18:09.760Z,97181.66
2023-03-11T20:20:38.099Z,97190.31
2023-03-11T20:23:06.757Z,97177.19
2023-03-11T20:25:33.910Z,97180.72
2023-03-11T20:28:01.208Z,97188.94
2023-03-11T20:30:28.766Z,97185.16
2023-03-11T20:32:56.249Z,97190.84
2023-03-11T20:35:23.577Z,97194.31
2023-03-11T20:37:50.686Z,97184.94
2023-03-11T20:40:19.513Z,97187.53
2023-03-11T20:42:46.636Z,97180.28
2023-03-11T20:45:15.018Z,97187.22
2023-03-11T20:47:42.174Z,97186.19
2023-03-11T20:50:10.850Z,97192.66
2023-03-11T20:52:38.091Z,97196.38
2023-03-11T20:55:06.589Z,97194.19
2023-03-11T20:57:35.323Z,97194.28
2023-03-11T21:00:02.707Z,97195.41
2023-03-11T21:02:30.215Z,97191.16
2023-03-11T21:04:57.493Z,97205.66
2023-03-11T21:07:24.814Z,97198.69
2023-03-11T21:09:52.068Z,97205.66
2023-03-11T21:12:19.261Z,97212.16
2023-03-11T21:14:47.707Z,97198.78
2023-03-11T21:17:14.981Z,97194.25
2023-03-11T21:19:42.234Z,97206.84
2023-03-11T21:22:09.765Z,97202.03
2023-03-11T21:24:37.084Z,97207.97
2023-03-11T21:27:04.235Z,97204.56
2023-03-11T21:29:31.328Z,97200.53
2023-03-11T21:32:00.137Z,97206.78
2023-03-11T21:34:27.375Z,97210.63
2023-03-11T21:36:54.538Z,97208.44
2023-03-11T21:39:21.765Z,97210.91
2023-03-11T21:41:48.890Z,97214.97
2023-03-11T21:44:16.044Z,97207.41
2023-03-11T21:46:43.466Z,97218.19
2023-03-11T21:49:12.136Z,97215.69
2023-03-11T21:51:39.317Z,97223.25
2023-03-11T21:54:06.487Z,97225.44
2023-03-11T21:56:33.874Z,97221.94
2023-03-11T21:59:01.167Z,97211.41
2023-03-11T22:01:28.361Z,97216.84
2023-03-11T22:03:55.505Z,97227.81
2023-03-11T22:06:24.178Z,97215.38
2023-03-11T22:08:51.837Z,97225.88
2023-03-11T22:11:19.846Z,97227.22
2023-03-11T22:13:48.958Z,97219.47
2023-03-11T22:16:16.916Z,97231.03
2023-03-11T22:18:44.535Z,97234.50
2023-03-11T22:21:11.724Z,97231.81
2023-03-11T22:23:40.181Z,97236.16
2023-03-11T22:26:07.483Z,97234.84
2023-03-11T22:28:34.891Z,97224.47
2023-03-11T22:31:06.270Z,97243.47
2023-03-11T22:33:33.521Z,97235.97
2023-03-11T22:36:00.981Z,97237.09
2023-03-11T22:38:28.258Z,97236.06
2023-03-11T22:40:57.042Z,97241.44
2023-03-11T22:43:24.234Z,97249.00
2023-03-11T22:45:51.464Z,97246.59
2023-03-11T22:48:18.603Z,97246.06
2023-03-11T22:50:45.698Z,97240.69
2023-03-11T22:53:13.143Z,97242.56
2023-03-11T22:55:41.313Z,97246.00
2023-03-11T22:58:10.274Z,97246.28
2023-03-11T23:00:38.378Z,97249.75
2023-03-11T23:03:05.734Z,97250.03
2023-03-11T23:05:33.065Z,97249.75
2023-03-11T23:08:00.182Z,97254.34
2023-03-11T23:10:27.282Z,97262.69
2023-03-11T23:12:54.360Z,97267.28
2023-03-11T23:15:22.913Z,97261.91
2023-03-11T23:17:50.019Z,97258.72
2023-03-11T23:20:17.799Z,97267.03
2023-03-11T23:22:45.032Z,97274.88
2023-03-11T23:25:15.121Z,97268.72
2023-03-11T23:27:43.818Z,97268.53
2023-03-11T23:30:13.339Z,97270.94
2023-03-11T23:32:41.960Z,97254.84
2023-03-11T23:35:09.897Z,97273.06
2023-03-11T23:37:37.161Z,97258.63
2023-03-11T23:40:05.540Z,97267.72
2023-03-11T23:42:33.240Z,97272.28
2023-03-11T23:45:00.640Z,97280.28
2023-03-11T23:47:27.864Z,97274.13
2023-03-11T23:49:56.545Z,97274.38
2023-03-11T23:52:23.764Z,97286.25
2023-03-11T23:54:50.865Z,97285.66
2023-03-11T23:57:18.160Z,97287.03
2023-03-11T23:59:45.325Z,97288.16
